Omaha, Nebraska
Current Conditions -  °F | °C
As of 4:52 AM on Friday 19 Dec 2014 (Local Time) from KOMA Reporting Station
Haze Haze  
Wind Chill: -4°   Ceiling: 800
Heat Index: -1°   Visibility: 6mi
Dew Point: -2°   Wind: 6mph
Humidity: 89%   Direction: 150°SSE
Pressure: 30.23"   Gusts: NA
Location:  41.26°N, 95.94°W
Report Text: KOMA 191052Z 15005KT 6SM BR OVC008 M01/M02 A3023 RMK AO2 SLP246 T10061022
Loading
Personal Weather Stations






























Interactive Weather Map New forecast layout! Learn more

10-Day Weather Forecast

Advertisements
Track Severe Weather on mobile